createdAt,value
2023-04-06T00:02:16.090Z,100777.44
2023-04-06T00:04:43.943Z,100777.44
2023-04-06T00:07:13.240Z,100772.75
2023-04-06T00:09:41.770Z,100772.97
2023-04-06T00:12:09.575Z,100766.84
2023-04-06T00:14:37.372Z,100766.66
2023-04-06T00:17:05.720Z,100763.19
2023-04-06T00:19:33.638Z,100767.66
2023-04-06T00:22:03.211Z,100756.28
2023-04-06T00:24:32.842Z,100751.03
2023-04-06T00:27:00.872Z,100755.47
2023-04-06T00:29:28.673Z,100755.69
2023-04-06T00:31:56.911Z,100751.59
2023-04-06T00:34:24.721Z,100744.88
2023-04-06T00:36:52.515Z,100744.88
2023-04-06T00:39:21.160Z,100747.69
2023-04-06T00:41:53.800Z,100746.69
2023-04-06T00:44:22.623Z,100744.25
2023-04-06T00:46:50.872Z,100732.84
2023-04-06T00:49:19.099Z,100738.13
2023-04-06T00:51:47.375Z,100735.50
2023-04-06T00:54:15.564Z,100739.97
2023-04-06T00:56:44.760Z,100729.59
2023-04-06T00:59:15.304Z,100724.09
2023-04-06T01:01:43.412Z,100716.75
2023-04-06T01:04:11.241Z,100722.47
2023-04-06T01:06:39.643Z,100721.66
2023-04-06T01:09:07.769Z,100715.34
2023-04-06T01:11:35.843Z,100707.41
2023-04-06T01:14:04.271Z,100706.59
2023-04-06T01:16:33.483Z,100709.03
2023-04-06T01:19:01.579Z,100710.88
2023-04-06T01:21:29.961Z,100701.09
2023-04-06T01:23:59.197Z,100699.28
2023-04-06T01:26:27.980Z,100705.38
2023-04-06T01:28:56.495Z,100692.16
2023-04-06T01:31:25.033Z,100689.72
2023-04-06T01:33:53.176Z,100685.03
2023-04-06T01:36:22.123Z,100688.47
2023-04-06T01:38:49.932Z,100689.50
2023-04-06T01:41:19.132Z,100676.09
2023-04-06T01:43:48.551Z,100681.38
2023-04-06T01:46:16.423Z,100676.09
2023-04-06T01:48:44.246Z,100676.91
2023-04-06T01:51:12.802Z,100668.16
2023-04-06T01:53:40.758Z,100668.34
2023-04-06T01:56:08.818Z,100664.06
2023-04-06T01:58:38.681Z,100666.72
2023-04-06T02:01:06.515Z,100664.06
2023-04-06T02:03:34.381Z,100655.31
2023-04-06T02:06:02.698Z,100661.41
2023-04-06T02:08:30.506Z,100656.94
2023-04-06T02:10:58.312Z,100655.31
2023-04-06T02:13:26.666Z,100648.41
2023-04-06T02:15:55.968Z,100653.69
2023-04-06T02:18:23.858Z,100656.50
2023-04-06T02:20:52.504Z,100643.69
2023-04-06T02:23:20.420Z,100651.63
2023-04-06T02:25:48.213Z,100640.41
2023-04-06T02:28:16.695Z,100641.44
2023-04-06T02:30:44.486Z,100644.50
2023-04-06T02:33:13.684Z,100642.84
2023-04-06T02:35:42.153Z,100636.75
2023-04-06T02:38:09.953Z,100630.84
2023-04-06T02:40:37.727Z,100632.03
2023-04-06T02:43:06.116Z,100625.94
2023-04-06T02:45:33.912Z,100627.97
2023-04-06T02:48:01.802Z,100627.56
2023-04-06T02:50:31.578Z,100626.75
2023-04-06T02:52:59.166Z,100630.84
2023-04-06T02:55:26.951Z,100624.91
2023-04-06T02:57:55.284Z,100627.97
2023-04-06T03:00:23.273Z,100616.97
2023-04-06T03:02:51.198Z,100616.31
2023-04-06T03:05:19.657Z,100613.06
2023-04-06T03:07:48.826Z,100619.38
2023-04-06T03:10:16.710Z,100615.28
2023-04-06T03:12:45.052Z,100613.66
2023-04-06T03:15:12.967Z,100612.03
2023-04-06T03:17:41.149Z,100613.22
2023-04-06T03:20:10.398Z,100607.13
2023-04-06T03:22:38.264Z,100608.34
2023-04-06T03:25:08.260Z,100604.09
2023-04-06T03:27:36.430Z,100602.84
2023-04-06T03:30:04.392Z,100599.56
2023-04-06T03:32:32.194Z,100601.59
2023-04-06T03:35:00.564Z,100605.44
2023-04-06T03:37:28.340Z,100596.09
2023-04-06T03:39:56.118Z,100593.81
2023-04-06T03:42:25.932Z,100595.66
2023-04-06T03:44:53.714Z,100596.06
2023-04-06T03:47:21.748Z,100587.28
2023-04-06T03:49:50.131Z,100593.19
2023-04-06T03:52:17.939Z,100589.91
2023-04-06T03:54:45.725Z,100587.47
2023-04-06T03:57:14.119Z,100583.38
2023-04-06T03:59:43.439Z,100580.13
2023-04-06T04:02:11.365Z,100591.06
2023-04-06T04:04:40.532Z,100586.00
2023-04-06T04:07:08.390Z,100598.75
2023-04-06T04:09:36.364Z,100597.13
2023-04-06T04:12:05.118Z,100593.06
2023-04-06T04:14:32.907Z,100596.69
2023-04-06T04:17:02.059Z,100601.16
2023-04-06T04:19:30.552Z,100598.28
2023-04-06T04:21:58.388Z,100605.41
2023-04-06T04:24:26.213Z,100598.69
2023-04-06T04:26:54.421Z,100604.16
2023-04-06T04:29:23.459Z,100606.78
2023-04-06T04:31:51.546Z,100612.28
2023-04-06T04:34:22.289Z,100614.72
2023-04-06T04:36:50.104Z,100609.63
2023-04-06T04:39:17.917Z,100614.91
2023-04-06T04:41:46.146Z,100612.28
2023-04-06T04:44:13.957Z,100608.81
2023-04-06T04:46:42.470Z,100610.44
2023-04-06T04:49:10.884Z,100611.25
2023-04-06T04:51:40.207Z,100613.72
2023-04-06T04:54:08.061Z,100609.44
2023-04-06T04:56:36.319Z,100603.16
2023-04-06T04:59:04.195Z,100600.53
2023-04-06T05:01:38.007Z,100605.59
2023-04-06T05:04:15.914Z,100606.22
2023-04-06T05:06:45.225Z,100599.91
2023-04-06T05:09:13.025Z,100603.56
2023-04-06T05:11:41.306Z,100596.28
2023-04-06T05:14:09.186Z,100606.03
2023-04-06T05:16:37.251Z,100608.47
2023-04-06T05:19:05.627Z,100604.81
2023-04-06T05:21:33.427Z,100610.09
2023-04-06T05:24:03.454Z,100606.44
2023-04-06T05:26:31.921Z,100609.09
2023-04-06T05:28:59.814Z,100610.75
2023-04-06T05:31:27.718Z,100602.81
2023-04-06T05:33:55.667Z,100611.38
2023-04-06T05:36:23.459Z,100604.03
2023-04-06T05:38:53.712Z,100609.16
2023-04-06T05:41:23.501Z,100606.91
2023-04-06T05:43:51.335Z,100606.09
2023-04-06T05:46:19.229Z,100608.56
2023-04-06T05:48:47.820Z,100601.25
2023-04-06T05:51:15.623Z,100605.53
2023-04-06T05:53:43.412Z,100608.97
2023-04-06T05:56:11.754Z,100606.78
2023-04-06T05:58:41.016Z,100612.66
2023-04-06T06:01:10.001Z,100608.03
2023-04-06T06:03:38.507Z,100608.63
2023-04-06T06:06:07.013Z,100611.91
2023-04-06T06:08:34.834Z,100612.31
2023-04-06T06:11:04.585Z,100599.69
2023-04-06T06:13:32.417Z,100606.66
2023-04-06T06:16:01.661Z,100611.13
2023-04-06T06:18:30.088Z,100608.28
2023-04-06T06:20:57.891Z,100605.44
2023-04-06T06:23:25.695Z,100617.44
2023-04-06T06:25:54.135Z,100609.53
2023-04-06T06:28:22.489Z,100617.25
2023-04-06T06:30:50.314Z,100605.28
2023-04-06T06:33:20.075Z,100619.09
2023-04-06T06:35:48.496Z,100614.44
2023-04-06T06:38:16.425Z,100610.78
2023-04-06T06:40:44.639Z,100613.06
2023-04-06T06:43:12.455Z,100613.88
2023-04-06T06:45:40.270Z,100611.00
2023-04-06T06:48:08.543Z,100611.63
2023-04-06T06:50:37.770Z,100614.69
2023-04-06T06:53:05.752Z,100612.88
2023-04-06T06:55:34.210Z,100609.19
2023-04-06T06:58:02.063Z,100609.19
2023-04-06T07:00:29.875Z,100606.56
2023-04-06T07:02:58.242Z,100613.50
2023-04-06T07:05:28.682Z,100609.19
2023-04-06T07:07:58.713Z,100609.84
2023-04-06T07:10:26.939Z,100598.66
2023-04-06T07:12:54.855Z,100604.78
2023-04-06T07:15:23.071Z,100595.22
2023-04-06T07:17:51.045Z,100603.16
2023-04-06T07:20:19.052Z,100602.13
2023-04-06T07:22:47.240Z,100601.91
2023-04-06T07:25:16.628Z,100598.06
2023-04-06T07:27:44.437Z,100603.16
2023-04-06T07:30:13.237Z,100599.31
2023-04-06T07:32:41.192Z,100594.63
2023-04-06T07:35:09.512Z,100599.31
2023-04-06T07:37:37.689Z,100588.53
2023-04-06T07:40:06.298Z,100601.38
2023-04-06T07:42:36.664Z,100595.88
2023-04-06T07:45:05.034Z,100594.84
2023-04-06T07:47:32.852Z,100593.84
2023-04-06T07:50:00.970Z,100598.31
2023-04-06T07:52:29.145Z,100603.59
2023-04-06T07:54:56.942Z,100606.25
2023-04-06T07:57:24.753Z,100606.47
2023-04-06T07:59:54.390Z,100591.19
2023-04-06T08:02:22.055Z,100598.94
2023-04-06T08:04:50.003Z,100597.31
2023-04-06T08:07:18.234Z,100594.69
2023-04-06T08:09:46.104Z,100600.78
2023-04-06T08:12:13.929Z,100594.69
2023-04-06T08:14:42.097Z,100595.50
2023-04-06T08:17:11.392Z,100592.63
2023-04-06T08:19:39.512Z,100594.91
2023-04-06T08:22:07.656Z,100599.16
2023-04-06T08:24:35.509Z,100604.03
2023-04-06T08:27:03.931Z,100604.66
2023-04-06T08:29:32.126Z,100604.50
2023-04-06T08:31:59.946Z,100606.13
2023-04-06T08:34:29.180Z,100597.78
2023-04-06T08:36:57.321Z,100600.22
2023-04-06T08:39:26.644Z,100598.38
2023-04-06T08:41:58.197Z,100601.25
2023-04-06T08:44:26.425Z,100596.56
2023-04-06T08:46:54.962Z,100598.38
2023-04-06T08:49:24.296Z,100592.28
2023-04-06T08:51:54.041Z,100591.09
2023-04-06T08:54:21.600Z,100596.59
2023-04-06T08:56:50.048Z,100594.97
2023-04-06T08:59:18.018Z,100591.69
2023-04-06T09:01:47.912Z,100589.03
2023-04-06T09:04:18.110Z,100589.63
2023-04-06T09:06:46.410Z,100599.19
2023-04-06T09:09:16.251Z,100587.63
2023-04-06T09:11:49.098Z,100586.59
2023-04-06T09:14:17.914Z,100583.75
2023-04-06T09:16:48.450Z,100583.94
2023-04-06T09:19:16.586Z,100584.59
2023-04-06T09:21:44.469Z,100577.84
2023-04-06T09:24:12.423Z,100580.09
2023-04-06T09:26:49.100Z,100581.31
2023-04-06T09:29:35.828Z,100568.69
2023-04-06T09:32:07.428Z,100574.41
2023-04-06T09:34:36.468Z,100574.41
2023-04-06T09:37:14.895Z,100558.53
2023-04-06T09:39:42.780Z,100570.72
2023-04-06T09:42:12.371Z,100572.34
2023-04-06T09:44:40.285Z,100569.31
2023-04-06T09:47:09.835Z,100570.94
2023-04-06T09:49:37.842Z,100565.84
2023-04-06T09:52:08.870Z,100564.00
2023-04-06T09:54:37.529Z,100561.38
2023-04-06T09:57:14.961Z,100563.22
2023-04-06T09:59:49.768Z,100564.00
2023-04-06T10:02:26.934Z,100554.25
2023-04-06T10:05:00.836Z,100550.78
2023-04-06T10:07:29.594Z,100553.63
2023-04-06T10:09:58.073Z,100553.63
2023-04-06T10:12:27.261Z,100549.97
2023-04-06T10:14:56.707Z,100561.97
2023-04-06T10:17:25.430Z,100557.31
2023-04-06T10:19:57.446Z,100554.66
2023-04-06T10:22:35.700Z,100553.63
2023-04-06T10:25:03.890Z,100548.13
2023-04-06T10:27:34.748Z,100554.84
2023-04-06T10:30:07.891Z,100552.81
2023-04-06T10:32:38.225Z,100549.94
2023-04-06T10:35:10.597Z,100549.53
2023-04-06T10:37:53.766Z,100549.53
2023-04-06T10:40:24.777Z,100543.44
2023-04-06T10:42:54.740Z,100539.56
2023-04-06T10:45:24.581Z,100533.88
2023-04-06T10:47:54.924Z,100537.53
2023-04-06T10:50:23.515Z,100538.94
2023-04-06T10:53:02.369Z,100546.25
2023-04-06T10:55:31.616Z,100537.31
2023-04-06T10:58:00.866Z,100537.69
2023-04-06T11:00:36.267Z,100530.38
2023-04-06T11:03:11.217Z,100530.97
2023-04-06T11:05:39.290Z,100528.09
2023-04-06T11:08:07.536Z,100530.97
2023-04-06T11:10:35.365Z,100527.72
2023-04-06T11:13:06.933Z,100514.66
2023-04-06T11:15:38.194Z,100527.09
2023-04-06T11:18:07.507Z,100526.28
2023-04-06T11:20:35.648Z,100521.81
2023-04-06T11:23:04.684Z,100520.59
2023-04-06T11:25:33.647Z,100516.09
2023-04-06T11:28:01.894Z,100518.53
2023-04-06T11:30:31.370Z,100511.22
2023-04-06T11:33:04.562Z,100516.69
2023-04-06T11:35:34.794Z,100505.50
2023-04-06T11:38:05.911Z,100505.06
2023-04-06T11:40:34.202Z,100505.91
2023-04-06T11:43:01.991Z,100507.31
2023-04-06T11:45:42.213Z,100485.16
2023-04-06T11:48:21.040Z,100499.38
2023-04-06T11:50:49.982Z,100489.59
2023-04-06T11:53:17.834Z,100499.16
2023-04-06T11:55:47.732Z,100491.59
2023-04-06T11:58:16.220Z,100484.88
2023-04-06T12:00:47.508Z,100482.00
2023-04-06T12:03:16.613Z,100487.13
2023-04-06T12:05:45.826Z,100483.00
2023-04-06T12:08:13.649Z,100476.91
2023-04-06T12:10:41.674Z,100482.59
2023-04-06T12:13:09.469Z,100480.13
2023-04-06T12:15:37.254Z,100478.50
2023-04-06T12:18:06.748Z,100466.03
2023-04-06T12:20:34.789Z,100473.56
2023-04-06T12:23:02.605Z,100466.22
2023-04-06T12:25:31.236Z,100465.97
2023-04-06T12:27:59.997Z,100469.44
2023-04-06T12:30:27.796Z,100468.19
2023-04-06T12:32:55.898Z,100470.41
2023-04-06T12:35:25.187Z,100467.34
2023-04-06T12:37:52.952Z,100461.84
2023-04-06T12:40:21.471Z,100466.09
2023-04-06T12:42:49.248Z,100471.63
2023-04-06T12:45:17.233Z,100456.31
2023-04-06T12:47:45.234Z,100451.44
2023-04-06T12:50:13.013Z,100465.28
2023-04-06T12:52:42.227Z,100452.63
2023-04-06T12:55:11.203Z,100455.09
2023-04-06T12:57:39.161Z,100452.44
2023-04-06T13:00:09.349Z,100444.94
2023-04-06T13:02:37.995Z,100453.13
2023-04-06T13:05:06.472Z,100440.28
2023-04-06T13:07:34.275Z,100449.44
2023-04-06T13:10:03.690Z,100441.72
2023-04-06T13:12:31.466Z,100436.63
2023-04-06T13:14:59.261Z,100433.59
2023-04-06T13:17:29.861Z,100432.19
2023-04-06T13:19:57.905Z,100430.75
2023-04-06T13:22:25.693Z,100428.34
2023-04-06T13:24:53.825Z,100428.34
2023-04-06T13:27:22.999Z,100428.75
2023-04-06T13:29:50.789Z,100425.50
2023-04-06T13:32:18.967Z,100428.16
2023-04-06T13:34:48.977Z,100426.72
2023-04-06T13:37:17.849Z,100414.91
2023-04-06T13:39:45.917Z,100416.53
2023-04-06T13:42:13.712Z,100413.28
2023-04-06T13:44:42.888Z,100416.53
2023-04-06T13:47:10.964Z,100417.34
2023-04-06T13:49:38.890Z,100406.72
2023-04-06T13:52:06.721Z,100414.47
2023-04-06T13:54:34.676Z,100411.63
2023-04-06T13:57:02.489Z,100416.47
2023-04-06T13:59:34.578Z,100411.19
2023-04-06T14:02:04.472Z,100405.06
2023-04-06T14:04:32.354Z,100416.88
2023-04-06T14:07:00.895Z,100416.47
2023-04-06T14:09:28.643Z,100410.31
2023-04-06T14:11:57.382Z,100410.31
2023-04-06T14:14:25.813Z,100412.16
2023-04-06T14:16:53.722Z,100404.00
2023-04-06T14:19:22.903Z,100404.00
2023-04-06T14:21:50.935Z,100405.25
2023-04-06T14:24:20.042Z,100401.38
2023-04-06T14:26:47.744Z,100398.50
2023-04-06T14:29:17.090Z,100391.56
2023-04-06T14:31:47.966Z,100401.56
2023-04-06T14:34:16.181Z,100399.53
2023-04-06T14:36:45.820Z,100395.25
2023-04-06T14:39:13.545Z,100390.75
2023-04-06T14:41:41.963Z,100398.91
2023-04-06T14:44:13.490Z,100386.47
2023-04-06T14:46:41.346Z,100390.16
2023-04-06T14:49:09.830Z,100396.25
2023-04-06T14:51:38.016Z,100387.72
2023-04-06T14:54:07.307Z,100387.31
2023-04-06T14:56:34.998Z,100374.25
2023-04-06T14:59:03.083Z,100377.28
2023-04-06T15:01:31.339Z,100383.34
2023-04-06T15:04:00.372Z,100378.88
2023-04-06T15:06:29.419Z,100379.63
2023-04-06T15:08:57.192Z,100376.38
2023-04-06T15:11:27.062Z,100372.03
2023-04-06T15:13:55.353Z,100380.38
2023-04-06T15:16:23.124Z,100371.78
2023-04-06T15:18:51.042Z,100372.16
2023-04-06T15:21:21.487Z,100376.81
2023-04-06T15:23:49.487Z,100372.09
2023-04-06T15:26:17.281Z,100369.06
2023-04-06T15:28:46.933Z,100365.53
2023-04-06T15:31:33.158Z,100369.97
2023-04-06T15:34:05.459Z,100365.88
2023-04-06T15:36:33.832Z,100372.59
2023-04-06T15:39:02.199Z,100364.63
2023-04-06T15:41:30.442Z,100364.16
2023-04-06T15:43:59.861Z,100363.59
2023-04-06T15:46:28.907Z,100370.28
2023-04-06T15:48:57.585Z,100372.53
2023-04-06T15:51:26.216Z,100366.19
2023-04-06T15:53:53.911Z,100369.44
2023-04-06T15:56:22.567Z,100371.88
2023-04-06T15:58:50.366Z,100365.28
2023-04-06T16:01:20.429Z,100364.88
2023-04-06T16:03:49.201Z,100365.69
2023-04-06T16:06:17.030Z,100359.13
2023-04-06T16:08:45.154Z,100355.44
2023-04-06T16:11:14.110Z,100356.84
2023-04-06T16:13:45.034Z,100359.28
2023-04-06T16:16:16.282Z,100350.38
2023-04-06T16:18:45.724Z,100356.19
2023-04-06T16:21:17.489Z,100354.13
2023-04-06T16:23:46.453Z,100355.75
2023-04-06T16:26:15.612Z,100362.44
2023-04-06T16:28:43.658Z,100360.59
2023-04-06T16:31:18.901Z,100355.75
2023-04-06T16:33:48.761Z,100362.81
2023-04-06T16:36:23.137Z,100362.59
2023-04-06T16:38:52.010Z,100361.78
2023-04-06T16:41:20.084Z,100363.41
2023-04-06T16:43:48.113Z,100363.19
2023-04-06T16:46:16.718Z,100364.59
2023-04-06T16:48:44.572Z,100361.34
2023-04-06T16:51:13.634Z,100366.81
2023-04-06T16:53:41.951Z,100367.03
2023-04-06T16:58:43.106Z,100364.16
2023-04-06T17:01:19.252Z,100366.00
2023-04-06T17:03:47.937Z,100364.97
2023-04-06T17:06:17.252Z,100365.78
2023-04-06T17:08:46.457Z,100368.66
2023-04-06T17:11:18.656Z,100366.81
2023-04-06T17:13:50.680Z,100368.44
2023-04-06T17:16:19.538Z,100362.88
2023-04-06T17:18:47.350Z,100364.72
2023-04-06T17:21:16.914Z,100366.38
2023-04-06T17:23:46.756Z,100372.28
2023-04-06T17:26:14.647Z,100366.38
2023-04-06T17:28:42.820Z,100369.03
2023-04-06T17:31:12.844Z,100365.78
2023-04-06T17:33:41.804Z,100370.66
2023-04-06T17:36:12.706Z,100366.97
2023-04-06T17:38:43.812Z,100370.19
2023-04-06T17:41:14.480Z,100373.66
2023-04-06T17:43:42.158Z,100366.97
2023-04-06T17:46:09.955Z,100368.56
2023-04-06T17:48:38.208Z,100380.81
2023-04-06T17:51:06.684Z,100374.94
2023-04-06T17:53:34.573Z,100377.16
2023-04-06T17:56:04.381Z,100370.19
2023-04-06T17:58:33.841Z,100381.63
2023-04-06T18:01:07.552Z,100385.13
2023-04-06T18:03:35.538Z,100373.88
2023-04-06T18:06:11.444Z,100383.69
2023-04-06T18:08:39.156Z,100385.78
2023-04-06T18:11:06.860Z,100387.63
2023-04-06T18:13:39.282Z,100392.56
2023-04-06T18:16:08.148Z,100393.22
2023-04-06T18:18:36.625Z,100379.78
2023-04-06T18:21:05.405Z,100389.94
2023-04-06T18:23:34.186Z,100401.03
2023-04-06T18:26:02.453Z,100403.06
2023-04-06T18:28:31.204Z,100394.53
2023-04-06T18:31:02.591Z,100401.91
2023-04-06T18:33:32.197Z,100404.41
2023-04-06T18:35:59.966Z,100409.72
2023-04-06T18:38:28.287Z,100411.34
2023-04-06T18:40:55.998Z,100412.38
2023-04-06T18:43:23.670Z,100415.22
2023-04-06T18:45:51.948Z,100420.34
2023-04-06T18:48:21.039Z,100423.34
2023-04-06T18:50:55.943Z,100421.50
2023-04-06T18:53:23.599Z,100424.38
2023-04-06T18:55:51.642Z,100416.25
2023-04-06T18:58:19.978Z,100430.72
2023-04-06T19:00:47.697Z,100435.66
2023-04-06T19:03:15.649Z,100436.69
2023-04-06T19:05:45.497Z,100447.47
2023-04-06T19:08:13.615Z,100452.78
2023-04-06T19:10:41.553Z,100450.69
2023-04-06T19:13:10.021Z,100455.00
2023-04-06T19:15:37.785Z,100463.97
2023-04-06T19:18:05.891Z,100462.34
2023-04-06T19:20:35.472Z,100459.28
2023-04-06T19:23:04.743Z,100465.16
2023-04-06T19:25:32.572Z,100459.88
2023-04-06T19:28:01.229Z,100473.75
2023-04-06T19:30:28.993Z,100471.09
2023-04-06T19:32:57.548Z,100476.41
2023-04-06T19:35:25.776Z,100476.19
2023-04-06T19:37:53.774Z,100479.47
2023-04-06T19:40:22.850Z,100479.63
2023-04-06T19:42:51.036Z,100482.28
2023-04-06T19:45:18.757Z,100486.78
2023-04-06T19:47:46.654Z,100484.38
2023-04-06T19:50:15.888Z,100490.47
2023-04-06T19:52:43.601Z,100489.69
2023-04-06T19:55:11.625Z,100492.34
2023-04-06T19:57:40.993Z,100495.78
2023-04-06T20:00:10.145Z,100499.25
2023-04-06T20:02:38.115Z,100499.25
2023-04-06T20:05:07.203Z,100506.41
2023-04-06T20:07:34.904Z,100501.53
2023-04-06T20:10:03.817Z,100498.88
2023-04-06T20:12:32.144Z,100506.84
2023-04-06T20:15:01.378Z,100501.31
2023-04-06T20:17:29.094Z,100503.16
2023-04-06T20:19:57.596Z,100502.56
2023-04-06T20:22:25.341Z,100503.78
2023-04-06T20:24:53.001Z,100517.06
2023-04-06T20:27:20.975Z,100514.88
2023-04-06T20:29:48.983Z,100520.59
2023-04-06T20:32:20.756Z,100527.53
2023-04-06T20:34:48.804Z,100527.34
2023-04-06T20:37:17.773Z,100533.69
2023-04-06T20:39:45.562Z,100524.13
2023-04-06T20:42:13.295Z,100529.84
2023-04-06T20:44:41.145Z,100529.47
2023-04-06T20:47:08.925Z,100527.25
2023-04-06T20:49:37.969Z,100533.59
2023-04-06T20:52:05.971Z,100538.50
2023-04-06T20:54:33.639Z,100538.94
2023-04-06T20:57:01.539Z,100534.88
2023-04-06T20:59:29.496Z,100542.44
2023-04-06T21:01:57.235Z,100539.19
2023-04-06T21:04:25.102Z,100538.59
2023-04-06T21:06:54.590Z,100545.94
2023-04-06T21:09:22.254Z,100550.03
2023-04-06T21:11:49.886Z,100551.28
2023-04-06T21:14:20.574Z,100548.84
2023-04-06T21:16:48.810Z,100552.50
2023-04-06T21:19:16.444Z,100550.72
2023-04-06T21:21:44.301Z,100553.38
2023-04-06T21:24:13.346Z,100550.13
2023-04-06T21:26:41.217Z,100558.50
2023-04-06T21:29:09.756Z,100555.03
2023-04-06T21:31:41.113Z,100544.41
2023-04-06T21:34:13.141Z,100548.91
2023-04-06T21:36:41.697Z,100542.59
2023-04-06T21:39:09.792Z,100551.78
2023-04-06T21:41:41.181Z,100542.41
2023-04-06T21:44:08.834Z,100542.81
2023-04-06T21:46:36.549Z,100547.06
2023-04-06T21:49:04.883Z,100546.84
2023-04-06T21:51:32.621Z,100545.22
2023-04-06T21:54:00.383Z,100541.53
2023-04-06T21:56:28.612Z,100545.81
2023-04-06T21:58:57.750Z,100545.63
2023-04-06T22:01:25.410Z,100543.56
2023-04-06T22:03:56.444Z,100542.34
2023-04-06T22:06:25.594Z,100550.91
2023-04-06T22:08:53.290Z,100548.84
2023-04-06T22:11:21.687Z,100541.50
2023-04-06T22:13:49.423Z,100551.06
2023-04-06T22:16:19.241Z,100542.69
2023-04-06T22:18:47.458Z,100539.00
2023-04-06T22:21:15.438Z,100539.00
2023-04-06T22:23:43.181Z,100538.78
2023-04-06T22:26:12.173Z,100545.94
2023-04-06T22:28:39.876Z,100558.16
2023-04-06T22:31:07.554Z,100545.94
2023-04-06T22:33:37.047Z,100552.88
2023-04-06T22:36:05.155Z,100552.88
2023-04-06T22:38:32.869Z,100553.91
2023-04-06T22:41:01.045Z,100557.34
2023-04-06T22:43:28.705Z,100553.91
2023-04-06T22:45:56.477Z,100555.97
2023-04-06T22:48:24.812Z,100555.34
2023-04-06T22:50:54.184Z,100559.03
2023-04-06T22:53:21.895Z,100558.44
2023-04-06T22:55:50.153Z,100553.31
2023-04-06T22:58:17.929Z,100557.81
2023-04-06T23:00:45.911Z,100553.53
2023-04-06T23:03:14.182Z,100555.16
2023-04-06T23:05:41.958Z,100551.13
2023-04-06T23:08:11.019Z,100551.94
2023-04-06T23:13:28.150Z,100548.66
2023-04-06T23:15:56.333Z,100550.94
2023-04-06T23:18:24.042Z,100546.03
2023-04-06T23:20:51.697Z,100548.50
2023-04-06T23:23:21.047Z,100554.84
2023-04-06T23:25:48.706Z,100556.03
2023-04-06T23:28:16.405Z,100555.22
2023-04-06T23:30:44.587Z,100553.38
2023-04-06T23:33:12.299Z,100549.13
2023-04-06T23:35:40.113Z,100553.38
2023-04-06T23:38:08.201Z,100552.56
2023-04-06T23:40:39.813Z,100554.03
2023-04-06T23:43:07.508Z,100559.53
2023-04-06T23:45:35.525Z,100555.22
2023-04-06T23:48:03.268Z,100557.88
2023-04-06T23:50:30.949Z,100566.66
2023-04-06T23:52:59.256Z,100560.34
2023-04-06T23:55:26.921Z,100559.34
2023-04-06T23:57:56.550Z,100564.44
